DAL69 NZAA-YSSY
Flight info
| Callsign | DAL69 |
|---|---|
| Flight time | 2h 50m |
| Altitude | 36000 |
| Route | MADEP N774 MARLN |
| Aircraft | B78X/H-SDE1E2E3FGHIJ2J3J4J5M1RWXY/LB1D1 |
Departure
| Time | 2026-05-05 17:16 |
|---|---|
| Airport | Auckland International Airport (NZAA) |
Arrival
| Time | 2026-05-05 20:07 |
|---|---|
| Airport | Sydney Kingsford Smith International Airport (YSSY) |
| Time | Latitude | Longitude | Altitude | Speed | Heading |
|---|---|---|---|---|---|
| 2026-05-05 17:08 | -37.00921 | 174.78109 | 36 ft | 0 kts | 84° |
| 2026-05-05 17:09 | -37.00921 | 174.78111 | 37 ft | 2 kts | 86° |
| 2026-05-05 17:10 | -37.00938 | 174.78178 | 36 ft | 16 kts | 116° |
| 2026-05-05 17:10 | -37.01031 | 174.78275 | 36 ft | 19 kts | 156° |
| 2026-05-05 17:10 | -37.01078 | 174.78371 | 36 ft | 14 kts | 75° |
| 2026-05-05 17:10 | -37.01043 | 174.78513 | 36 ft | 17 kts | 70° |
| 2026-05-05 17:11 | -37.01000 | 174.78659 | 36 ft | 19 kts | 69° |
| 2026-05-05 17:11 | -37.00960 | 174.78801 | 36 ft | 17 kts | 71° |
| 2026-05-05 17:11 | -37.00919 | 174.78948 | 36 ft | 18 kts | 71° |
| 2026-05-05 17:11 | -37.00878 | 174.79098 | 36 ft | 18 kts | 71° |
| 2026-05-05 17:12 | -37.00837 | 174.79246 | 36 ft | 19 kts | 71° |
| 2026-05-05 17:12 | -37.00797 | 174.79391 | 36 ft | 17 kts | 71° |
| 2026-05-05 17:12 | -37.00770 | 174.79488 | 36 ft | 18 kts | 71° |
| 2026-05-05 17:12 | -37.00729 | 174.79638 | 36 ft | 19 kts | 71° |
| 2026-05-05 17:13 | -37.00688 | 174.79785 | 36 ft | 18 kts | 70° |
| 2026-05-05 17:13 | -37.00646 | 174.79936 | 36 ft | 19 kts | 70° |
| 2026-05-05 17:13 | -37.00606 | 174.80078 | 36 ft | 17 kts | 71° |
| 2026-05-05 17:13 | -37.00565 | 174.80226 | 36 ft | 19 kts | 71° |
| 2026-05-05 17:14 | -37.00524 | 174.80375 | 36 ft | 18 kts | 71° |
| 2026-05-05 17:14 | -37.00511 | 174.80523 | 36 ft | 17 kts | 111° |
| 2026-05-05 17:14 | -37.00594 | 174.80570 | 36 ft | 13 kts | 212° |
| 2026-05-05 17:14 | -37.00682 | 174.80489 | 36 ft | 11 kts | 236° |
| 2026-05-05 17:15 | -37.00688 | 174.80474 | 36 ft | 0 kts | 243° |
| 2026-05-05 17:15 | -37.00713 | 174.80397 | 36 ft | 43 kts | 253° |
| 2026-05-05 17:16 | -37.00923 | 174.79629 | 37 ft | 140 kts | 251° |
| 2026-05-05 17:16 | -37.01304 | 174.78198 | 330 ft | 188 kts | 251° |
| 2026-05-05 17:16 | -37.01717 | 174.76642 | 1509 ft | 189 kts | 250° |
| 2026-05-05 17:16 | -37.02161 | 174.75064 | 2682 ft | 199 kts | 248° |
| 2026-05-05 17:17 | -37.02648 | 174.73340 | 3448 ft | 220 kts | 247° |
| 2026-05-05 17:17 | -37.03182 | 174.71463 | 4151 ft | 239 kts | 248° |
| 2026-05-05 17:17 | -37.03753 | 174.69429 | 4803 ft | 255 kts | 250° |
| 2026-05-05 17:17 | -37.04351 | 174.67272 | 5479 ft | 268 kts | 251° |
| 2026-05-05 17:18 | -37.04966 | 174.65032 | 6246 ft | 274 kts | 252° |
| 2026-05-05 17:18 | -37.05579 | 174.62793 | 6988 ft | 276 kts | 253° |
| 2026-05-05 17:18 | -37.06195 | 174.60538 | 7723 ft | 272 kts | 253° |
| 2026-05-05 17:18 | -37.06803 | 174.58316 | 8462 ft | 272 kts | 253° |
| 2026-05-05 17:19 | -37.07421 | 174.56055 | 9222 ft | 276 kts | 253° |
| 2026-05-05 17:19 | -37.08048 | 174.53760 | 9981 ft | 280 kts | 253° |
| 2026-05-05 17:19 | -37.08687 | 174.51423 | 10739 ft | 284 kts | 253° |
| 2026-05-05 17:19 | -37.09326 | 174.49083 | 11488 ft | 286 kts | 253° |
| 2026-05-05 17:20 | -37.09965 | 174.46733 | 12233 ft | 287 kts | 254° |
| 2026-05-05 17:20 | -37.10244 | 174.44258 | 12866 ft | 286 kts | 273° |
| 2026-05-05 17:20 | -37.09662 | 174.41934 | 13649 ft | 276 kts | 296° |
| 2026-05-05 17:20 | -37.08726 | 174.39871 | 14478 ft | 270 kts | 302° |
| 2026-05-05 17:21 | -37.07766 | 174.37893 | 15217 ft | 267 kts | 303° |
| 2026-05-05 17:21 | -37.06803 | 174.35924 | 15958 ft | 263 kts | 303° |
| 2026-05-05 17:21 | -37.05824 | 174.33917 | 16359 ft | 274 kts | 303° |
| 2026-05-05 17:22 | -37.03742 | 174.29628 | 16772 ft | 305 kts | 303° |
| 2026-05-05 17:22 | -37.02616 | 174.27301 | 16986 ft | 321 kts | 303° |
| 2026-05-05 17:22 | -37.01439 | 174.24868 | 17295 ft | 332 kts | 302° |
| 2026-05-05 17:22 | -37.00242 | 174.22389 | 17784 ft | 338 kts | 302° |
| 2026-05-05 17:23 | -36.99025 | 174.19872 | 18306 ft | 342 kts | 302° |
| 2026-05-05 17:23 | -36.97768 | 174.17274 | 18807 ft | 346 kts | 302° |
| 2026-05-05 17:23 | -36.96517 | 174.14689 | 19335 ft | 350 kts | 302° |
| 2026-05-05 17:23 | -36.95248 | 174.12071 | 19871 ft | 352 kts | 302° |
| 2026-05-05 17:24 | -36.93974 | 174.09444 | 20409 ft | 355 kts | 302° |
| 2026-05-05 17:24 | -36.92690 | 174.06798 | 20919 ft | 357 kts | 301° |
| 2026-05-05 17:24 | -36.91391 | 174.04122 | 21391 ft | 361 kts | 301° |
| 2026-05-05 17:24 | -36.90095 | 174.01458 | 21833 ft | 365 kts | 301° |
| 2026-05-05 17:25 | -36.88788 | 173.98725 | 22289 ft | 369 kts | 299° |
| 2026-05-05 17:25 | -36.88104 | 173.96719 | 22397 ft | 376 kts | 288° |
| 2026-05-05 17:25 | -36.87610 | 173.92438 | 23252 ft | 370 kts | 275° |
| 2026-05-05 17:25 | -36.87361 | 173.89233 | 23752 ft | 374 kts | 275° |
| 2026-05-05 17:26 | -36.87048 | 173.85988 | 24161 ft | 377 kts | 277° |
| 2026-05-05 17:26 | -36.86670 | 173.82733 | 24544 ft | 382 kts | 278° |
| 2026-05-05 17:26 | -36.86242 | 173.79433 | 24978 ft | 384 kts | 278° |
| 2026-05-05 17:26 | -36.85789 | 173.76135 | 25437 ft | 386 kts | 279° |
| 2026-05-05 17:27 | -36.85319 | 173.72824 | 25901 ft | 387 kts | 279° |
| 2026-05-05 17:27 | -36.84841 | 173.69510 | 26342 ft | 389 kts | 279° |
| 2026-05-05 17:27 | -36.84357 | 173.66185 | 26767 ft | 391 kts | 279° |
| 2026-05-05 17:27 | -36.83872 | 173.62871 | 27138 ft | 394 kts | 279° |
| 2026-05-05 17:28 | -36.83379 | 173.59504 | 27500 ft | 396 kts | 278° |
| 2026-05-05 17:28 | -36.82880 | 173.56107 | 27868 ft | 399 kts | 278° |
| 2026-05-05 17:28 | -36.82378 | 173.52698 | 28268 ft | 400 kts | 278° |
| 2026-05-05 17:28 | -36.81872 | 173.49271 | 28651 ft | 402 kts | 278° |
| 2026-05-05 17:29 | -36.81364 | 173.45838 | 29025 ft | 404 kts | 278° |
| 2026-05-05 17:29 | -36.80853 | 173.42383 | 29372 ft | 406 kts | 278° |
| 2026-05-05 17:29 | -36.80341 | 173.38901 | 29696 ft | 408 kts | 278° |
| 2026-05-05 17:29 | -36.79826 | 173.35399 | 30021 ft | 410 kts | 278° |
| 2026-05-05 17:30 | -36.79309 | 173.31883 | 30348 ft | 412 kts | 278° |
| 2026-05-05 17:30 | -36.78790 | 173.28365 | 30671 ft | 414 kts | 278° |
| 2026-05-05 17:30 | -36.78266 | 173.24811 | 30966 ft | 417 kts | 278° |
| 2026-05-05 17:30 | -36.77741 | 173.21254 | 31260 ft | 419 kts | 278° |
| 2026-05-05 17:31 | -36.77208 | 173.17657 | 31564 ft | 421 kts | 278° |
| 2026-05-05 17:31 | -36.76682 | 173.14112 | 31864 ft | 423 kts | 278° |
| 2026-05-05 17:31 | -36.76145 | 173.10499 | 32158 ft | 424 kts | 278° |
| 2026-05-05 17:31 | -36.75604 | 173.06865 | 32434 ft | 427 kts | 278° |
| 2026-05-05 17:32 | -36.75060 | 173.03219 | 32699 ft | 429 kts | 278° |
| 2026-05-05 17:32 | -36.74513 | 172.99565 | 32974 ft | 431 kts | 278° |
| 2026-05-05 17:32 | -36.73959 | 172.95866 | 33217 ft | 433 kts | 278° |
| 2026-05-05 17:32 | -36.73405 | 172.92175 | 33475 ft | 435 kts | 278° |
| 2026-05-05 17:33 | -36.72845 | 172.88456 | 33752 ft | 437 kts | 279° |
| 2026-05-05 17:33 | -36.72282 | 172.84722 | 34024 ft | 438 kts | 278° |
| 2026-05-05 17:33 | -36.71717 | 172.80988 | 34300 ft | 439 kts | 278° |
| 2026-05-05 17:33 | -36.71148 | 172.77237 | 34521 ft | 442 kts | 278° |
| 2026-05-05 17:34 | -36.70580 | 172.73501 | 34739 ft | 445 kts | 278° |
| 2026-05-05 17:34 | -36.69995 | 172.69655 | 34972 ft | 447 kts | 278° |
| 2026-05-05 17:34 | -36.69421 | 172.65895 | 35205 ft | 449 kts | 279° |
| 2026-05-05 17:34 | -36.68837 | 172.62074 | 35480 ft | 450 kts | 278° |
| 2026-05-05 17:35 | -36.68249 | 172.58243 | 35817 ft | 450 kts | 278° |
| 2026-05-05 17:35 | -36.67661 | 172.54414 | 36131 ft | 449 kts | 279° |
| 2026-05-05 17:35 | -36.67071 | 172.50586 | 36331 ft | 450 kts | 279° |
| 2026-05-05 17:36 | -36.65879 | 172.42860 | 36409 ft | 460 kts | 279° |
| 2026-05-05 17:36 | -36.64658 | 172.34979 | 36419 ft | 472 kts | 279° |
| 2026-05-05 17:37 | -36.63394 | 172.26866 | 36410 ft | 480 kts | 279° |
| 2026-05-05 17:37 | -36.62111 | 172.18693 | 36399 ft | 479 kts | 279° |
| 2026-05-05 17:38 | -36.60833 | 172.10568 | 36410 ft | 479 kts | 279° |
| 2026-05-05 17:38 | -36.59545 | 172.02428 | 36400 ft | 479 kts | 279° |
| 2026-05-05 17:39 | -36.58253 | 171.94303 | 36397 ft | 478 kts | 279° |
| 2026-05-05 17:39 | -36.56968 | 171.86245 | 36407 ft | 478 kts | 279° |
| 2026-05-05 17:40 | -36.55669 | 171.78135 | 36392 ft | 478 kts | 279° |
| 2026-05-05 17:40 | -36.54361 | 171.70014 | 36395 ft | 478 kts | 279° |
| 2026-05-05 17:41 | -36.53053 | 171.61926 | 36398 ft | 478 kts | 279° |
| 2026-05-05 17:41 | -36.51737 | 171.53825 | 36384 ft | 477 kts | 279° |
| 2026-05-05 17:42 | -36.50425 | 171.45785 | 36395 ft | 478 kts | 279° |
| 2026-05-05 17:42 | -36.49101 | 171.37710 | 36385 ft | 476 kts | 279° |
| 2026-05-05 17:43 | -36.47770 | 171.29629 | 36382 ft | 477 kts | 279° |
| 2026-05-05 17:43 | -36.46435 | 171.21556 | 36389 ft | 476 kts | 279° |
| 2026-05-05 17:44 | -36.45099 | 171.13512 | 36375 ft | 476 kts | 279° |
| 2026-05-05 17:44 | -36.43757 | 171.05472 | 36380 ft | 475 kts | 279° |
| 2026-05-05 17:45 | -36.42410 | 170.97433 | 36380 ft | 475 kts | 279° |
| 2026-05-05 17:45 | -36.41058 | 170.89401 | 36368 ft | 474 kts | 279° |
| 2026-05-05 17:46 | -36.39711 | 170.81430 | 36378 ft | 474 kts | 279° |
| 2026-05-05 17:46 | -36.38631 | 170.73371 | 36371 ft | 471 kts | 274° |
| 2026-05-05 17:47 | -36.37957 | 170.65300 | 36361 ft | 470 kts | 272° |
| 2026-05-05 17:47 | -36.37411 | 170.57224 | 36372 ft | 470 kts | 271° |
| 2026-05-05 17:48 | -36.36893 | 170.49147 | 36361 ft | 469 kts | 271° |
| 2026-05-05 17:48 | -36.36375 | 170.41091 | 36358 ft | 468 kts | 271° |
| 2026-05-05 17:49 | -36.35852 | 170.33035 | 36367 ft | 468 kts | 271° |
| 2026-05-05 17:49 | -36.35323 | 170.24980 | 36351 ft | 467 kts | 271° |
| 2026-05-05 17:50 | -36.34790 | 170.16953 | 36348 ft | 466 kts | 271° |
| 2026-05-05 17:50 | -36.34253 | 170.08939 | 36356 ft | 467 kts | 271° |
| 2026-05-05 17:51 | -36.33713 | 170.00960 | 36341 ft | 467 kts | 271° |
| 2026-05-05 17:51 | -36.33164 | 169.92932 | 36348 ft | 467 kts | 271° |
| 2026-05-05 17:52 | -36.32611 | 169.84908 | 36345 ft | 467 kts | 271° |
| 2026-05-05 17:52 | -36.32051 | 169.76890 | 36335 ft | 467 kts | 271° |
| 2026-05-05 17:53 | -36.31486 | 169.68872 | 36343 ft | 466 kts | 272° |
| 2026-05-05 17:53 | -36.30916 | 169.60865 | 36329 ft | 466 kts | 272° |
| 2026-05-05 17:54 | -36.30342 | 169.52866 | 36334 ft | 466 kts | 272° |
| 2026-05-05 17:54 | -36.29766 | 169.44921 | 36333 ft | 466 kts | 272° |
| 2026-05-05 17:55 | -36.29182 | 169.36910 | 36322 ft | 466 kts | 272° |
| 2026-05-05 17:55 | -36.28591 | 169.28914 | 36332 ft | 465 kts | 272° |
| 2026-05-05 17:56 | -36.27996 | 169.20930 | 36321 ft | 465 kts | 272° |
| 2026-05-05 17:56 | -36.27395 | 169.12943 | 36319 ft | 465 kts | 272° |
| 2026-05-05 17:57 | -36.26790 | 169.04962 | 36326 ft | 465 kts | 272° |
| 2026-05-05 17:57 | -36.26183 | 168.97029 | 36312 ft | 464 kts | 273° |
| 2026-05-05 17:58 | -36.25566 | 168.89038 | 36319 ft | 464 kts | 273° |
| 2026-05-05 17:58 | -36.24950 | 168.81129 | 36315 ft | 463 kts | 273° |
| 2026-05-05 17:59 | -36.24326 | 168.73190 | 36306 ft | 463 kts | 273° |
| 2026-05-05 17:59 | -36.23697 | 168.65249 | 36323 ft | 463 kts | 273° |
| 2026-05-05 18:00 | -36.23064 | 168.57327 | 36322 ft | 462 kts | 273° |
| 2026-05-05 18:00 | -36.22532 | 168.50716 | 36311 ft | 462 kts | 273° |
| 2026-05-05 18:01 | -36.21785 | 168.41527 | 36322 ft | 462 kts | 274° |
| 2026-05-05 18:01 | -36.21241 | 168.34881 | 36314 ft | 462 kts | 274° |
| 2026-05-05 18:02 | -36.20589 | 168.26968 | 36306 ft | 461 kts | 274° |
| 2026-05-05 18:02 | -36.19937 | 168.19130 | 36318 ft | 462 kts | 274° |
| 2026-05-05 18:03 | -36.19273 | 168.11206 | 36305 ft | 461 kts | 274° |
| 2026-05-05 18:03 | -36.18606 | 168.03305 | 36305 ft | 461 kts | 274° |
| 2026-05-05 18:04 | -36.17933 | 167.95406 | 36310 ft | 461 kts | 274° |
| 2026-05-05 18:04 | -36.17254 | 167.87489 | 36296 ft | 461 kts | 274° |
| 2026-05-05 18:05 | -36.16576 | 167.79653 | 36297 ft | 460 kts | 274° |
| 2026-05-05 18:05 | -36.15886 | 167.71745 | 36302 ft | 460 kts | 274° |
| 2026-05-05 18:06 | -36.15194 | 167.63863 | 36288 ft | 460 kts | 274° |
| 2026-05-05 18:06 | -36.14503 | 167.56049 | 36295 ft | 460 kts | 274° |
| 2026-05-05 18:07 | -36.13801 | 167.48179 | 36293 ft | 460 kts | 274° |
| 2026-05-05 18:07 | -36.13097 | 167.40328 | 36282 ft | 458 kts | 274° |
| 2026-05-05 18:08 | -36.12390 | 167.32521 | 36294 ft | 457 kts | 274° |
| 2026-05-05 18:08 | -36.11676 | 167.24699 | 36284 ft | 457 kts | 274° |
| 2026-05-05 18:09 | -36.10960 | 167.16907 | 36281 ft | 456 kts | 275° |
| 2026-05-05 18:09 | -36.10240 | 167.09116 | 36291 ft | 456 kts | 275° |
| 2026-05-05 18:10 | -36.09519 | 167.01382 | 36275 ft | 454 kts | 275° |
| 2026-05-05 18:10 | -36.08790 | 166.93616 | 36284 ft | 454 kts | 275° |
| 2026-05-05 18:11 | -36.08060 | 166.85888 | 36279 ft | 452 kts | 275° |
| 2026-05-05 18:11 | -36.07326 | 166.78169 | 36273 ft | 452 kts | 275° |
| 2026-05-05 18:12 | -36.06586 | 166.70446 | 36282 ft | 451 kts | 275° |
| 2026-05-05 18:12 | -36.05841 | 166.62720 | 36272 ft | 455 kts | 275° |
| 2026-05-05 18:13 | -36.05092 | 166.55016 | 36269 ft | 454 kts | 275° |
| 2026-05-05 18:13 | -36.04332 | 166.47241 | 36279 ft | 454 kts | 275° |
| 2026-05-05 18:14 | -36.03569 | 166.39494 | 36266 ft | 453 kts | 275° |
| 2026-05-05 18:14 | -36.02802 | 166.31752 | 36268 ft | 453 kts | 275° |
| 2026-05-05 18:15 | -36.02031 | 166.24030 | 36274 ft | 453 kts | 275° |
| 2026-05-05 18:15 | -36.01257 | 166.16321 | 36267 ft | 452 kts | 275° |
| 2026-05-05 18:16 | -36.00480 | 166.08634 | 36285 ft | 453 kts | 275° |
| 2026-05-05 18:16 | -35.99694 | 166.00913 | 36278 ft | 453 kts | 275° |
| 2026-05-05 18:17 | -35.98906 | 165.93210 | 36273 ft | 452 kts | 275° |
| 2026-05-05 18:17 | -35.98111 | 165.85505 | 36283 ft | 453 kts | 275° |
| 2026-05-05 18:18 | -35.97312 | 165.77800 | 36270 ft | 451 kts | 275° |
| 2026-05-05 18:18 | -35.96509 | 165.70108 | 36275 ft | 451 kts | 276° |
| 2026-05-05 18:19 | -35.95701 | 165.62419 | 36276 ft | 450 kts | 276° |
| 2026-05-05 18:19 | -35.94895 | 165.54775 | 36268 ft | 446 kts | 276° |
| 2026-05-05 18:20 | -35.94099 | 165.47288 | 36273 ft | 441 kts | 276° |
| 2026-05-05 18:20 | -35.93289 | 165.39729 | 36274 ft | 443 kts | 276° |
| 2026-05-05 18:21 | -35.92483 | 165.32247 | 36262 ft | 441 kts | 277° |
| 2026-05-05 18:21 | -35.91670 | 165.24736 | 36273 ft | 442 kts | 277° |
| 2026-05-05 18:22 | -35.90852 | 165.17225 | 36266 ft | 441 kts | 277° |
| 2026-05-05 18:22 | -35.90030 | 165.09732 | 36262 ft | 440 kts | 277° |
| 2026-05-05 18:23 | -35.89205 | 165.02240 | 36272 ft | 441 kts | 277° |
| 2026-05-05 18:23 | -35.88375 | 164.94762 | 36251 ft | 439 kts | 277° |
| 2026-05-05 18:24 | -35.87548 | 164.87345 | 36216 ft | 439 kts | 277° |
| 2026-05-05 18:24 | -35.86712 | 164.79881 | 36197 ft | 440 kts | 277° |
| 2026-05-05 18:25 | -35.85867 | 164.72388 | 36188 ft | 440 kts | 277° |
| 2026-05-05 18:25 | -35.85019 | 164.64915 | 36200 ft | 440 kts | 277° |
| 2026-05-05 18:26 | -35.84165 | 164.57432 | 36190 ft | 441 kts | 277° |
| 2026-05-05 18:26 | -35.83305 | 164.49938 | 36191 ft | 441 kts | 277° |
| 2026-05-05 18:27 | -35.82441 | 164.42456 | 36199 ft | 441 kts | 278° |
| 2026-05-05 18:27 | -35.81572 | 164.34956 | 36187 ft | 442 kts | 278° |
| 2026-05-05 18:28 | -35.80265 | 164.23776 | 36200 ft | 442 kts | 278° |
| 2026-05-05 18:28 | -35.79377 | 164.16223 | 36188 ft | 443 kts | 278° |
| 2026-05-05 18:29 | -35.78495 | 164.08768 | 36194 ft | 443 kts | 278° |
| 2026-05-05 18:29 | -35.77604 | 164.01277 | 36197 ft | 443 kts | 278° |
| 2026-05-05 18:30 | -35.76706 | 163.93771 | 36186 ft | 443 kts | 278° |
| 2026-05-05 18:30 | -35.75805 | 163.86270 | 36199 ft | 443 kts | 278° |
| 2026-05-05 18:31 | -35.74899 | 163.78777 | 36190 ft | 441 kts | 278° |
| 2026-05-05 18:31 | -35.73991 | 163.71303 | 36192 ft | 442 kts | 278° |
| 2026-05-05 18:32 | -35.73078 | 163.63823 | 36199 ft | 442 kts | 278° |
| 2026-05-05 18:32 | -35.72166 | 163.56401 | 36186 ft | 441 kts | 278° |
| 2026-05-05 18:33 | -35.71245 | 163.48944 | 36199 ft | 441 kts | 278° |
| 2026-05-05 18:33 | -35.70320 | 163.41488 | 36191 ft | 440 kts | 278° |
| 2026-05-05 18:34 | -35.69392 | 163.34051 | 36191 ft | 440 kts | 278° |
| 2026-05-05 18:34 | -35.68460 | 163.26611 | 36209 ft | 439 kts | 279° |
| 2026-05-05 18:35 | -35.67525 | 163.19194 | 36216 ft | 440 kts | 279° |
| 2026-05-05 18:35 | -35.66586 | 163.11780 | 36202 ft | 438 kts | 279° |
| 2026-05-05 18:36 | -35.65642 | 163.04365 | 36214 ft | 439 kts | 279° |
| 2026-05-05 18:36 | -35.64690 | 162.96940 | 36210 ft | 443 kts | 279° |
| 2026-05-05 18:37 | -35.63723 | 162.89434 | 36204 ft | 445 kts | 279° |
| 2026-05-05 18:37 | -35.62755 | 162.81964 | 36216 ft | 445 kts | 279° |
| 2026-05-05 18:38 | -35.61771 | 162.74405 | 36205 ft | 446 kts | 279° |
| 2026-05-05 18:38 | -35.60794 | 162.66939 | 36210 ft | 446 kts | 280° |
| 2026-05-05 18:39 | -35.59802 | 162.59401 | 36214 ft | 446 kts | 280° |
| 2026-05-05 18:39 | -35.58808 | 162.51877 | 36203 ft | 446 kts | 280° |
| 2026-05-05 18:40 | -35.57806 | 162.44337 | 36214 ft | 447 kts | 280° |
| 2026-05-05 18:40 | -35.56806 | 162.36844 | 36208 ft | 447 kts | 280° |
| 2026-05-05 18:41 | -35.55794 | 162.29307 | 36205 ft | 447 kts | 280° |
| 2026-05-05 18:41 | -35.54776 | 162.21750 | 36216 ft | 448 kts | 280° |
| 2026-05-05 18:42 | -35.53754 | 162.14201 | 36204 ft | 448 kts | 281° |
| 2026-05-05 18:42 | -35.52727 | 162.06652 | 36211 ft | 448 kts | 281° |
| 2026-05-05 18:43 | -35.51692 | 161.99088 | 36212 ft | 448 kts | 281° |
| 2026-05-05 18:43 | -35.50654 | 161.91534 | 36204 ft | 449 kts | 281° |
| 2026-05-05 18:44 | -35.49612 | 161.83993 | 36215 ft | 449 kts | 281° |
| 2026-05-05 18:44 | -35.48568 | 161.76475 | 36207 ft | 449 kts | 281° |
| 2026-05-05 18:45 | -35.47513 | 161.68910 | 36207 ft | 448 kts | 281° |
| 2026-05-05 18:45 | -35.46463 | 161.61412 | 36215 ft | 448 kts | 281° |
| 2026-05-05 18:46 | -35.45406 | 161.53899 | 36204 ft | 447 kts | 281° |
| 2026-05-05 18:46 | -35.44343 | 161.46381 | 36211 ft | 447 kts | 281° |
| 2026-05-05 18:47 | -35.43275 | 161.38866 | 36211 ft | 447 kts | 281° |
| 2026-05-05 18:47 | -35.42386 | 161.32626 | 36203 ft | 446 kts | 281° |
| 2026-05-05 18:48 | -35.41315 | 161.25155 | 36215 ft | 445 kts | 281° |
| 2026-05-05 18:48 | -35.40238 | 161.17668 | 36208 ft | 445 kts | 281° |
| 2026-05-05 18:49 | -35.39158 | 161.10198 | 36205 ft | 445 kts | 281° |
| 2026-05-05 18:49 | -35.38074 | 161.02731 | 36216 ft | 444 kts | 281° |
| 2026-05-05 18:50 | -35.36997 | 160.95344 | 36203 ft | 444 kts | 281° |
| 2026-05-05 18:50 | -35.35903 | 160.87879 | 36214 ft | 445 kts | 281° |
| 2026-05-05 18:51 | -35.34802 | 160.80401 | 36208 ft | 445 kts | 281° |
| 2026-05-05 18:51 | -35.33702 | 160.72953 | 36206 ft | 445 kts | 282° |
| 2026-05-05 18:52 | -35.32594 | 160.65493 | 36215 ft | 445 kts | 282° |
| 2026-05-05 18:52 | -35.31481 | 160.58030 | 36203 ft | 445 kts | 282° |
| 2026-05-05 18:53 | -35.30365 | 160.50584 | 36211 ft | 445 kts | 282° |
| 2026-05-05 18:53 | -35.29251 | 160.43176 | 36212 ft | 445 kts | 282° |
| 2026-05-05 18:54 | -35.28124 | 160.35712 | 36204 ft | 445 kts | 282° |
| 2026-05-05 18:54 | -35.26995 | 160.28269 | 36214 ft | 445 kts | 282° |
| 2026-05-05 18:55 | -35.25860 | 160.20826 | 36207 ft | 445 kts | 282° |
| 2026-05-05 18:55 | -35.24728 | 160.13424 | 36206 ft | 444 kts | 282° |
| 2026-05-05 18:56 | -35.23587 | 160.06000 | 36215 ft | 444 kts | 282° |
| 2026-05-05 18:56 | -35.22442 | 159.98588 | 36203 ft | 445 kts | 282° |
| 2026-05-05 18:57 | -35.21295 | 159.91189 | 36212 ft | 446 kts | 282° |
| 2026-05-05 18:57 | -35.20125 | 159.83676 | 36210 ft | 446 kts | 282° |
| 2026-05-05 18:58 | -35.18962 | 159.76237 | 36203 ft | 446 kts | 282° |
| 2026-05-05 18:58 | -35.17793 | 159.68786 | 36216 ft | 446 kts | 282° |
| 2026-05-05 18:59 | -35.16625 | 159.61376 | 36205 ft | 445 kts | 282° |
| 2026-05-05 18:59 | -35.15449 | 159.53953 | 36208 ft | 445 kts | 282° |
| 2026-05-05 19:00 | -35.14266 | 159.46509 | 36214 ft | 446 kts | 282° |
| 2026-05-05 19:00 | -35.13077 | 159.39060 | 36202 ft | 446 kts | 283° |
| 2026-05-05 19:01 | -35.11893 | 159.31671 | 36212 ft | 446 kts | 283° |
| 2026-05-05 19:01 | -35.10701 | 159.24262 | 36205 ft | 445 kts | 283° |
| 2026-05-05 19:02 | -35.09503 | 159.16852 | 36203 ft | 445 kts | 283° |
| 2026-05-05 19:02 | -35.08300 | 159.09434 | 36213 ft | 445 kts | 283° |
| 2026-05-05 19:03 | -35.07092 | 159.02012 | 36200 ft | 445 kts | 283° |
| 2026-05-05 19:03 | -35.05879 | 158.94601 | 36209 ft | 446 kts | 283° |
| 2026-05-05 19:04 | -35.04666 | 158.87208 | 36208 ft | 446 kts | 283° |
| 2026-05-05 19:04 | -35.03436 | 158.79754 | 36200 ft | 446 kts | 283° |
| 2026-05-05 19:05 | -35.02213 | 158.72365 | 36212 ft | 446 kts | 283° |
| 2026-05-05 19:05 | -35.00976 | 158.64924 | 36202 ft | 446 kts | 283° |
| 2026-05-05 19:06 | -34.99739 | 158.57506 | 36204 ft | 446 kts | 283° |
| 2026-05-05 19:06 | -34.98496 | 158.50089 | 36211 ft | 446 kts | 283° |
| 2026-05-05 19:07 | -34.97256 | 158.42714 | 36199 ft | 447 kts | 283° |
| 2026-05-05 19:07 | -34.96004 | 158.35288 | 36210 ft | 447 kts | 283° |
| 2026-05-05 19:08 | -34.94745 | 158.27859 | 36205 ft | 447 kts | 283° |
| 2026-05-05 19:08 | -34.93479 | 158.20423 | 36200 ft | 447 kts | 283° |
| 2026-05-05 19:09 | -34.92212 | 158.13004 | 36212 ft | 447 kts | 283° |
| 2026-05-05 19:09 | -34.90938 | 158.05576 | 36200 ft | 447 kts | 283° |
| 2026-05-05 19:10 | -34.89660 | 157.98151 | 36206 ft | 448 kts | 284° |
| 2026-05-05 19:10 | -34.88375 | 157.90706 | 36210 ft | 449 kts | 284° |
| 2026-05-05 19:11 | -34.87087 | 157.83279 | 36198 ft | 448 kts | 284° |
| 2026-05-05 19:11 | -34.85800 | 157.75895 | 36209 ft | 449 kts | 284° |
| 2026-05-05 19:12 | -34.84501 | 157.68462 | 36203 ft | 448 kts | 284° |
| 2026-05-05 19:12 | -34.83198 | 157.61032 | 36201 ft | 448 kts | 284° |
| 2026-05-05 19:13 | -34.81890 | 157.53602 | 36210 ft | 448 kts | 284° |
| 2026-05-05 19:13 | -34.80576 | 157.46174 | 36198 ft | 448 kts | 284° |
| 2026-05-05 19:14 | -34.79272 | 157.38823 | 36206 ft | 448 kts | 284° |
| 2026-05-05 19:14 | -34.77949 | 157.31394 | 36205 ft | 448 kts | 284° |
| 2026-05-05 19:15 | -34.76623 | 157.23979 | 36197 ft | 448 kts | 284° |
| 2026-05-05 19:15 | -34.75295 | 157.16576 | 36209 ft | 448 kts | 284° |
| 2026-05-05 19:16 | -34.73960 | 157.09160 | 36199 ft | 448 kts | 284° |
| 2026-05-05 19:16 | -34.72630 | 157.01806 | 36202 ft | 448 kts | 284° |
| 2026-05-05 19:17 | -34.71290 | 156.94416 | 36207 ft | 448 kts | 284° |
| 2026-05-05 19:17 | -34.69941 | 156.87004 | 36196 ft | 448 kts | 284° |
| 2026-05-05 19:18 | -34.68603 | 156.79682 | 36207 ft | 448 kts | 284° |
| 2026-05-05 19:18 | -34.67237 | 156.72234 | 36202 ft | 448 kts | 284° |
| 2026-05-05 19:19 | -34.65875 | 156.64832 | 36199 ft | 448 kts | 284° |
| 2026-05-05 19:19 | -34.64510 | 156.57441 | 36208 ft | 448 kts | 284° |
| 2026-05-05 19:20 | -34.63152 | 156.50111 | 36209 ft | 448 kts | 284° |
| 2026-05-05 19:20 | -34.61783 | 156.42758 | 36224 ft | 446 kts | 284° |
| 2026-05-05 19:21 | -34.60411 | 156.35409 | 36216 ft | 447 kts | 284° |
| 2026-05-05 19:21 | -34.59032 | 156.28047 | 36216 ft | 447 kts | 284° |
| 2026-05-05 19:22 | -34.57648 | 156.20691 | 36224 ft | 447 kts | 284° |
| 2026-05-05 19:22 | -34.56262 | 156.13346 | 36211 ft | 446 kts | 284° |
| 2026-05-05 19:23 | -34.54874 | 156.06010 | 36222 ft | 447 kts | 284° |
| 2026-05-05 19:23 | -34.53479 | 155.98664 | 36219 ft | 447 kts | 284° |
| 2026-05-05 19:24 | -34.52077 | 155.91307 | 36211 ft | 447 kts | 284° |
| 2026-05-05 19:24 | -34.50672 | 155.83966 | 36224 ft | 448 kts | 284° |
| 2026-05-05 19:25 | -34.49264 | 155.76636 | 36214 ft | 447 kts | 284° |
| 2026-05-05 19:25 | -34.47843 | 155.69263 | 36217 ft | 448 kts | 284° |
| 2026-05-05 19:26 | -34.46420 | 155.61902 | 36223 ft | 448 kts | 284° |
| 2026-05-05 19:26 | -34.44993 | 155.54546 | 36211 ft | 448 kts | 284° |
| 2026-05-05 19:27 | -34.43569 | 155.47229 | 36221 ft | 449 kts | 284° |
| 2026-05-05 19:27 | -34.42131 | 155.39871 | 36216 ft | 450 kts | 285° |
| 2026-05-05 19:28 | -34.40687 | 155.32496 | 36213 ft | 450 kts | 285° |
| 2026-05-05 19:28 | -34.39236 | 155.25113 | 36223 ft | 451 kts | 285° |
| 2026-05-05 19:29 | -34.37897 | 155.17702 | 36211 ft | 451 kts | 282° |
| 2026-05-05 19:29 | -34.36954 | 155.10227 | 36218 ft | 453 kts | 280° |
| 2026-05-05 19:30 | -34.36122 | 155.02654 | 36218 ft | 453 kts | 279° |
| 2026-05-05 19:30 | -34.35328 | 154.95078 | 36209 ft | 455 kts | 279° |
| 2026-05-05 19:31 | -34.34536 | 154.87486 | 36222 ft | 455 kts | 279° |
| 2026-05-05 19:31 | -34.33742 | 154.79888 | 36212 ft | 455 kts | 279° |
| 2026-05-05 19:32 | -34.32948 | 154.72340 | 36215 ft | 455 kts | 279° |
| 2026-05-05 19:32 | -34.32138 | 154.64695 | 36220 ft | 456 kts | 279° |
| 2026-05-05 19:33 | -34.31333 | 154.57127 | 36208 ft | 456 kts | 279° |
| 2026-05-05 19:33 | -34.30519 | 154.49526 | 36219 ft | 456 kts | 280° |
| 2026-05-05 19:34 | -34.29700 | 154.41924 | 36215 ft | 456 kts | 280° |
| 2026-05-05 19:35 | -34.28461 | 154.30507 | 36217 ft | 456 kts | 280° |
| 2026-05-05 19:35 | -34.27626 | 154.22874 | 36216 ft | 456 kts | 280° |
| 2026-05-05 19:36 | -34.26795 | 154.15324 | 36210 ft | 456 kts | 280° |
| 2026-05-05 19:36 | -34.25954 | 154.07720 | 36221 ft | 456 kts | 280° |
| 2026-05-05 19:37 | -34.25108 | 154.00121 | 36210 ft | 456 kts | 280° |
| 2026-05-05 19:37 | -34.24403 | 153.93813 | 36211 ft | 456 kts | 280° |
| 2026-05-05 19:38 | -34.23545 | 153.86196 | 36220 ft | 457 kts | 280° |
| 2026-05-05 19:38 | -34.22685 | 153.78592 | 36207 ft | 457 kts | 280° |
| 2026-05-05 19:39 | -34.21819 | 153.70982 | 36216 ft | 457 kts | 280° |
| 2026-05-05 19:39 | -34.20949 | 153.63369 | 36159 ft | 457 kts | 280° |
| 2026-05-05 19:39 | -34.20514 | 153.59583 | 35649 ft | 455 kts | 280° |
| 2026-05-05 19:40 | -34.20081 | 153.55809 | 35159 ft | 449 kts | 280° |
| 2026-05-05 19:40 | -34.19654 | 153.52098 | 34616 ft | 445 kts | 281° |
| 2026-05-05 19:40 | -34.19232 | 153.48457 | 34094 ft | 440 kts | 281° |
| 2026-05-05 19:40 | -34.18810 | 153.44822 | 33562 ft | 436 kts | 281° |
| 2026-05-05 19:41 | -34.18388 | 153.41207 | 33031 ft | 432 kts | 281° |
| 2026-05-05 19:41 | -34.17971 | 153.37642 | 32508 ft | 428 kts | 281° |
| 2026-05-05 19:41 | -34.17556 | 153.34097 | 31988 ft | 423 kts | 281° |
| 2026-05-05 19:41 | -34.17143 | 153.30588 | 31474 ft | 419 kts | 281° |
| 2026-05-05 19:42 | -34.16736 | 153.27126 | 30965 ft | 415 kts | 281° |
| 2026-05-05 19:42 | -34.16329 | 153.23679 | 30461 ft | 411 kts | 281° |
| 2026-05-05 19:42 | -34.15928 | 153.20284 | 29961 ft | 407 kts | 281° |
| 2026-05-05 19:42 | -34.15528 | 153.16919 | 29469 ft | 403 kts | 281° |
| 2026-05-05 19:43 | -34.15131 | 153.13580 | 28977 ft | 400 kts | 280° |
| 2026-05-05 19:43 | -34.14741 | 153.10316 | 28488 ft | 395 kts | 280° |
| 2026-05-05 19:43 | -34.14353 | 153.07070 | 28013 ft | 386 kts | 280° |
| 2026-05-05 19:43 | -34.13973 | 153.03895 | 27537 ft | 380 kts | 280° |
| 2026-05-05 19:44 | -34.13594 | 153.00737 | 27098 ft | 383 kts | 279° |
| 2026-05-05 19:44 | -34.13205 | 152.97512 | 26634 ft | 391 kts | 279° |
| 2026-05-05 19:44 | -34.12817 | 152.94296 | 26159 ft | 389 kts | 279° |
| 2026-05-05 19:44 | -34.12426 | 152.91059 | 25673 ft | 385 kts | 279° |
| 2026-05-05 19:45 | -34.12044 | 152.87896 | 25206 ft | 383 kts | 279° |
| 2026-05-05 19:45 | -34.11657 | 152.84696 | 24738 ft | 384 kts | 279° |
| 2026-05-05 19:45 | -34.11269 | 152.81506 | 24272 ft | 384 kts | 279° |
| 2026-05-05 19:45 | -34.10881 | 152.78317 | 23801 ft | 381 kts | 278° |
| 2026-05-05 19:46 | -34.10497 | 152.75164 | 23337 ft | 379 kts | 278° |
| 2026-05-05 19:46 | -34.10114 | 152.72029 | 22876 ft | 377 kts | 278° |
| 2026-05-05 19:46 | -34.09731 | 152.68896 | 22416 ft | 375 kts | 278° |
| 2026-05-05 19:46 | -34.09351 | 152.65797 | 21961 ft | 373 kts | 278° |
| 2026-05-05 19:47 | -34.08969 | 152.62694 | 21505 ft | 371 kts | 278° |
| 2026-05-05 19:47 | -34.08590 | 152.59617 | 21052 ft | 369 kts | 278° |
| 2026-05-05 19:47 | -34.08237 | 152.56566 | 20605 ft | 367 kts | 277° |
| 2026-05-05 19:47 | -34.07936 | 152.53557 | 20163 ft | 365 kts | 277° |
| 2026-05-05 19:48 | -34.07649 | 152.50533 | 19720 ft | 363 kts | 276° |
| 2026-05-05 19:48 | -34.07362 | 152.47475 | 19272 ft | 361 kts | 276° |
| 2026-05-05 19:48 | -34.07080 | 152.44467 | 18832 ft | 360 kts | 276° |
| 2026-05-05 19:48 | -34.06799 | 152.41474 | 18393 ft | 358 kts | 276° |
| 2026-05-05 19:49 | -34.06522 | 152.38538 | 17963 ft | 356 kts | 276° |
| 2026-05-05 19:49 | -34.06238 | 152.35544 | 17479 ft | 355 kts | 276° |
| 2026-05-05 19:49 | -34.05961 | 152.32620 | 16935 ft | 352 kts | 276° |
| 2026-05-05 19:49 | -34.05684 | 152.29715 | 16437 ft | 345 kts | 276° |
| 2026-05-05 19:50 | -34.05409 | 152.26826 | 15993 ft | 341 kts | 276° |
| 2026-05-05 19:50 | -34.05139 | 152.23992 | 15599 ft | 340 kts | 276° |
| 2026-05-05 19:50 | -34.04870 | 152.21180 | 15203 ft | 342 kts | 276° |
| 2026-05-05 19:50 | -34.04595 | 152.18327 | 14793 ft | 344 kts | 276° |
| 2026-05-05 19:51 | -34.04319 | 152.15465 | 14373 ft | 341 kts | 276° |
| 2026-05-05 19:51 | -34.04048 | 152.12656 | 13958 ft | 333 kts | 276° |
| 2026-05-05 19:51 | -34.03782 | 152.09915 | 13554 ft | 325 kts | 276° |
| 2026-05-05 19:51 | -34.03523 | 152.07256 | 13164 ft | 317 kts | 276° |
| 2026-05-05 19:52 | -34.03488 | 152.04629 | 12729 ft | 310 kts | 264° |
| 2026-05-05 19:52 | -34.03964 | 152.02160 | 12559 ft | 298 kts | 256° |
| 2026-05-05 19:52 | -34.04480 | 151.99752 | 12293 ft | 294 kts | 256° |
| 2026-05-05 19:52 | -34.04962 | 151.97378 | 12011 ft | 285 kts | 257° |
| 2026-05-05 19:53 | -34.05392 | 151.95108 | 11767 ft | 269 kts | 257° |
| 2026-05-05 19:53 | -34.05769 | 151.93020 | 11586 ft | 252 kts | 258° |
| 2026-05-05 19:53 | -34.06148 | 151.90861 | 11311 ft | 266 kts | 258° |
| 2026-05-05 19:53 | -34.06522 | 151.88676 | 11030 ft | 269 kts | 258° |
| 2026-05-05 19:54 | -34.06895 | 151.86475 | 10737 ft | 269 kts | 258° |
| 2026-05-05 19:54 | -34.07264 | 151.84274 | 10465 ft | 267 kts | 258° |
| 2026-05-05 19:54 | -34.07633 | 151.82069 | 10235 ft | 267 kts | 258° |
| 2026-05-05 19:54 | -34.07999 | 151.79872 | 10001 ft | 268 kts | 259° |
| 2026-05-05 19:55 | -34.08365 | 151.77672 | 9752 ft | 266 kts | 259° |
| 2026-05-05 19:55 | -34.08729 | 151.75478 | 9500 ft | 267 kts | 259° |
| 2026-05-05 19:55 | -34.09093 | 151.73279 | 9242 ft | 265 kts | 259° |
| 2026-05-05 19:55 | -34.09454 | 151.71096 | 8992 ft | 266 kts | 259° |
| 2026-05-05 19:56 | -34.09814 | 151.68921 | 8740 ft | 264 kts | 259° |
| 2026-05-05 19:56 | -34.10173 | 151.66743 | 8488 ft | 264 kts | 259° |
| 2026-05-05 19:56 | -34.10529 | 151.64582 | 8239 ft | 263 kts | 259° |
| 2026-05-05 19:56 | -34.10886 | 151.62414 | 7988 ft | 261 kts | 258° |
| 2026-05-05 19:57 | -34.11237 | 151.60281 | 7747 ft | 260 kts | 258° |
| 2026-05-05 19:57 | -34.11590 | 151.58134 | 7493 ft | 259 kts | 258° |
| 2026-05-05 19:57 | -34.11940 | 151.56001 | 7249 ft | 259 kts | 258° |
| 2026-05-05 19:57 | -34.12285 | 151.53895 | 7006 ft | 259 kts | 258° |
| 2026-05-05 19:58 | -34.12633 | 151.51775 | 6757 ft | 254 kts | 258° |
| 2026-05-05 19:58 | -34.12962 | 151.49755 | 6524 ft | 235 kts | 258° |
| 2026-05-05 19:58 | -34.13268 | 151.47888 | 6319 ft | 220 kts | 258° |
| 2026-05-05 19:58 | -34.13549 | 151.46161 | 6111 ft | 210 kts | 258° |
| 2026-05-05 19:59 | -34.13832 | 151.44425 | 5906 ft | 202 kts | 258° |
| 2026-05-05 19:59 | -34.14103 | 151.42763 | 5730 ft | 201 kts | 258° |
| 2026-05-05 19:59 | -34.14371 | 151.41116 | 5550 ft | 199 kts | 258° |
| 2026-05-05 19:59 | -34.14638 | 151.39480 | 5343 ft | 198 kts | 258° |
| 2026-05-05 20:00 | -34.14902 | 151.37849 | 5132 ft | 197 kts | 258° |
| 2026-05-05 20:00 | -34.15166 | 151.36225 | 4950 ft | 196 kts | 258° |
| 2026-05-05 20:00 | -34.15428 | 151.34612 | 4791 ft | 195 kts | 258° |
| 2026-05-05 20:00 | -34.15687 | 151.33009 | 4619 ft | 195 kts | 258° |
| 2026-05-05 20:01 | -34.15947 | 151.31401 | 4410 ft | 195 kts | 258° |
| 2026-05-05 20:01 | -34.16209 | 151.29793 | 4206 ft | 194 kts | 258° |
| 2026-05-05 20:01 | -34.16466 | 151.28202 | 4025 ft | 193 kts | 258° |
| 2026-05-05 20:01 | -34.16718 | 151.26636 | 3876 ft | 192 kts | 258° |
| 2026-05-05 20:02 | -34.16680 | 151.25025 | 3459 ft | 197 kts | 277° |
| 2026-05-05 20:02 | -34.15928 | 151.23695 | 3150 ft | 191 kts | 309° |
| 2026-05-05 20:02 | -34.14809 | 151.22978 | 3083 ft | 175 kts | 332° |
| 2026-05-05 20:02 | -34.13666 | 151.22541 | 3037 ft | 169 kts | 342° |
| 2026-05-05 20:03 | -34.12531 | 151.22210 | 3020 ft | 166 kts | 347° |
| 2026-05-05 20:03 | -34.11404 | 151.21940 | 3007 ft | 164 kts | 349° |
| 2026-05-05 20:03 | -34.10289 | 151.21675 | 2998 ft | 163 kts | 349° |
| 2026-05-05 20:03 | -34.09179 | 151.21401 | 3002 ft | 162 kts | 349° |
| 2026-05-05 20:04 | -34.08215 | 151.21165 | 2790 ft | 169 kts | 348° |
| 2026-05-05 20:04 | -34.07061 | 151.20997 | 1295 ft | 222 kts | 353° |
| 2026-05-05 20:04 | -34.05457 | 151.20508 | 71 ft | 240 kts | 344° |
| 2026-05-05 20:04 | -34.03848 | 151.19952 | 167 ft | 231 kts | 344° |
| 2026-05-05 20:05 | -34.02262 | 151.19477 | 196 ft | 243 kts | 347° |
| 2026-05-05 20:05 | -34.00573 | 151.19082 | 115 ft | 249 kts | 348° |
| 2026-05-05 20:05 | -33.99025 | 151.18712 | 222 ft | 204 kts | 349° |
| 2026-05-05 20:05 | -33.97741 | 151.18396 | 55 ft | 174 kts | 348° |
| 2026-05-05 20:06 | -33.96733 | 151.18009 | 160 ft | 137 kts | 343° |
| 2026-05-05 20:06 | -33.95849 | 151.17928 | 35 ft | 115 kts | 351° |
| 2026-05-05 20:06 | -33.95297 | 151.17743 | 34 ft | 63 kts | 352° |
| 2026-05-05 20:06 | -33.94887 | 151.17674 | 34 ft | 57 kts | 348° |
| 2026-05-05 20:07 | -33.94580 | 151.17587 | 34 ft | 15 kts | 350° |
| 2026-05-05 20:07 | -33.94473 | 151.17562 | 34 ft | 16 kts | 342° |
| 2026-05-05 20:07 | -33.94422 | 151.17533 | 34 ft | 11 kts | 316° |
| 2026-05-05 20:07 | -33.94385 | 151.17440 | 34 ft | 14 kts | 304° |
| 2026-05-05 20:08 | -33.94379 | 151.17431 | 34 ft | 0 kts | 305° |
| 2026-05-05 20:08 | -33.94362 | 151.17401 | 34 ft | 6 kts | 305° |
| 2026-05-05 20:08 | -33.94336 | 151.17358 | 34 ft | 17 kts | 312° |
| 2026-05-05 20:08 | -33.94322 | 151.17341 | 34 ft | 2 kts | 314° |
| 2026-05-05 20:09 | -33.94264 | 151.17309 | 34 ft | 15 kts | 348° |
| 2026-05-05 20:09 | -33.94153 | 151.17277 | 34 ft | 15 kts | 346° |
| 2026-05-05 20:09 | -33.94080 | 151.17235 | 34 ft | 9 kts | 296° |
| 2026-05-05 20:09 | -33.94081 | 151.17145 | 34 ft | 12 kts | 257° |
| 2026-05-05 20:10 | -33.94108 | 151.17028 | 34 ft | 17 kts | 255° |
| 2026-05-05 20:10 | -33.94137 | 151.16902 | 34 ft | 14 kts | 254° |
| 2026-05-05 20:10 | -33.94166 | 151.16781 | 34 ft | 16 kts | 254° |
| 2026-05-05 20:10 | -33.94195 | 151.16658 | 34 ft | 16 kts | 254° |
| 2026-05-05 20:11 | -33.94224 | 151.16541 | 34 ft | 15 kts | 253° |
| 2026-05-05 20:11 | -33.94252 | 151.16427 | 34 ft | 12 kts | 253° |
| 2026-05-05 20:11 | -33.94228 | 151.16341 | 34 ft | 12 kts | 325° |
| 2026-05-05 20:11 | -33.94141 | 151.16300 | 34 ft | 15 kts | 343° |
| 2026-05-05 20:12 | -33.94040 | 151.16292 | 34 ft | 14 kts | 3° |
| 2026-05-05 20:12 | -33.93970 | 151.16303 | 34 ft | 6 kts | 10° |
| 2026-05-05 20:12 | -33.93926 | 151.16321 | 34 ft | 8 kts | 35° |
| 2026-05-05 20:12 | -33.93891 | 151.16360 | 34 ft | 6 kts | 41° |
| 2026-05-05 20:13 | -33.93877 | 151.16410 | 34 ft | 5 kts | 90° |
| 2026-05-05 20:13 | -33.93879 | 151.16456 | 34 ft | 4 kts | 96° |
| 2026-05-05 20:13 | -33.93880 | 151.16469 | 34 ft | 0 kts | 96° |